Time;durP1;ratioP1;P1;durP2;ratioP2;P2;SDS_P1;SDS_P2;PMS_P1;PMS_P2;Temp;Humidity;BMP_temperature;BMP_pressure;BME280_temperature;BME280_humidity;BME280_pressure;Samples;Min_cycle;Max_cycle;Signal;HPM_P1;HPM_P2
2023/04/02 00:01:02;;;;;;;1999.90;999.90;;;19.30;99.90;;;;;;5028940;28;20033;-69
2023/04/02 00:04:02;;;;;;;1999.90;999.90;;;19.10;99.90;;;;;;5032742;28;20036;-69
2023/04/02 00:06:32;;;;;;;1999.90;999.90;;;19.00;99.90;;;;;;5028983;28;20041;-68
2023/04/02 00:09:21;;;;;;;1999.90;999.90;;;18.80;99.90;;;;;;5034738;28;20033;-69
2023/04/02 00:11:54;;;;;;;1999.90;999.90;;;18.70;99.90;;;;;;5034387;28;20040;-68
2023/04/02 00:14:21;;;;;;;1999.90;999.90;;;18.80;99.90;;;;;;5033623;28;20033;-68
2023/04/02 00:16:50;;;;;;;1999.90;999.90;;;18.90;99.90;;;;;;5033021;28;20117;-69
2023/04/02 00:19:24;;;;;;;1999.90;999.90;;;19.10;99.90;;;;;;5033395;28;20043;-68
2023/04/02 00:21:52;;;;;;;1999.90;999.90;;;19.30;99.90;;;;;;5037837;28;20030;-68
2023/04/02 00:24:21;;;;;;;1999.90;999.90;;;19.60;99.90;;;;;;5033792;28;20033;-69
2023/04/02 00:26:51;;;;;;;1999.90;999.90;;;20.00;99.90;;;;;;5035370;28;20033;-69
2023/04/02 00:29:19;;;;;;;1999.90;999.90;;;20.30;99.90;;;;;;5028597;28;20079;-70
2023/04/02 00:31:50;;;;;;;1999.90;999.90;;;20.60;99.90;;;;;;5033387;28;20030;-69
2023/04/02 00:34:37;;;;;;;1999.90;999.90;;;20.90;99.90;;;;;;5024572;28;20029;-70
2023/04/02 00:37:05;;;;;;;1999.90;999.90;;;21.30;99.90;;;;;;5030156;28;20067;-69
2023/04/02 00:39:40;;;;;;;1999.90;999.90;;;21.40;99.90;;;;;;5034342;28;20419;-69
2023/04/02 00:42:10;;;;;;;1999.90;999.90;;;21.40;99.90;;;;;;5018094;28;20338;-68
2023/04/02 00:44:43;;;;;;;1999.90;999.90;;;21.20;99.90;;;;;;5018718;28;20156;-69
2023/04/02 00:47:33;;;;;;;1999.90;999.90;;;21.10;99.90;;;;;;5022697;28;20053;-68
2023/04/02 00:50:23;;;;;;;1999.90;999.90;;;21.20;99.90;;;;;;5021591;28;20064;-67
2023/04/02 00:52:53;;;;;;;1999.90;999.90;;;21.20;99.90;;;;;;5023056;28;20687;-68
2023/04/02 00:55:25;;;;;;;1999.90;999.90;;;21.40;99.90;;;;;;5022498;28;20021;-70
2023/04/02 00:57:54;;;;;;;1999.90;999.90;;;21.40;99.90;;;;;;5021881;28;20390;-69
2023/04/02 01:00:31;;;;;;;1999.90;999.90;;;21.30;99.90;;;;;;5039454;28;20029;-69
2023/04/02 01:03:34;;;;;;;1999.90;999.90;;;21.20;99.90;;;;;;5032100;28;20452;-69
2023/04/02 01:06:02;;;;;;;1999.90;999.90;;;21.00;99.90;;;;;;5036691;28;20033;-68
2023/04/02 01:09:05;;;;;;;1999.90;999.90;;;20.90;99.90;;;;;;5033626;28;20029;-69
2023/04/02 01:11:54;;;;;;;1999.90;999.90;;;20.70;99.90;;;;;;5036398;28;20033;-69
2023/04/02 01:14:45;;;;;;;1999.90;999.90;;;20.60;99.90;;;;;;5034894;28;20021;-69
2023/04/02 01:17:37;;;;;;;1999.90;999.90;;;20.60;99.90;;;;;;5032697;28;20423;-70
2023/04/02 01:20:38;;;;;;;1999.90;999.90;;;20.70;99.90;;;;;;5032675;28;20036;-69
2023/04/02 01:23:15;;;;;;;1999.90;999.90;;;20.80;99.90;;;;;;5034589;28;20037;-71
2023/04/02 01:26:12;;;;;;;1999.90;999.90;;;20.90;99.90;;;;;;5034309;28;20020;-70
2023/04/02 01:29:01;;;;;;;1999.90;999.90;;;20.90;99.90;;;;;;5035094;28;20044;-70
2023/04/02 01:31:29;;;;;;;1999.90;999.90;;;20.80;99.90;;;;;;5036211;28;20029;-68
2023/04/02 01:33:57;;;;;;;1999.90;999.90;;;20.70;99.90;;;;;;5032571;28;20038;-69
2023/04/02 01:36:33;;;;;;;1999.90;999.90;;;20.60;99.90;;;;;;5031616;28;20488;-69
2023/04/02 01:39:23;;;;;;;1999.90;999.90;;;20.70;99.90;;;;;;5036026;28;20029;-69
2023/04/02 01:42:13;;;;;;;1999.90;999.90;;;20.80;99.90;;;;;;5042048;28;20021;-69
2023/04/02 01:45:02;;;;;;;1999.90;999.90;;;21.00;99.90;;;;;;5031945;28;20037;-69
2023/04/02 01:47:29;;;;;;;1999.90;999.90;;;21.40;99.90;;;;;;5025753;28;20041;-68
2023/04/02 01:50:19;;;;;;;1999.90;999.90;;;21.90;99.90;;;;;;5036972;28;20029;-69
2023/04/02 01:52:53;;;;;;;1999.90;999.90;;;22.40;99.90;;;;;;5028466;28;20411;-70
2023/04/02 01:55:52;;;;;;;1999.90;999.90;;;22.70;99.90;;;;;;5036004;28;20029;-70
2023/04/02 01:58:24;;;;;;;1999.90;999.90;;;23.50;99.90;;;;;;5026850;28;20094;-70
2023/04/02 02:01:04;;;;;;;1999.90;999.90;;;24.70;99.90;;;;;;5032179;28;20427;-70
2023/04/02 02:03:33;;;;;;;1999.90;999.90;;;25.60;99.90;;;;;;5020717;28;20061;-70
2023/04/02 02:06:02;;;;;;;1999.90;999.90;;;25.70;99.90;;;;;;5023867;28;20065;-70
2023/04/02 02:08:37;;;;;;;1999.90;999.90;;;25.30;99.90;;;;;;5026848;28;20022;-70
2023/04/02 02:11:06;;;;;;;1999.90;999.90;;;24.70;99.90;;;;;;5025653;28;20033;-70
2023/04/02 02:13:33;;;;;;;1999.90;999.90;;;24.10;99.90;;;;;;5026770;28;20033;-70
2023/04/02 02:16:03;;;;;;;1999.90;999.90;;;24.20;99.90;;;;;;5035425;28;20036;-70
2023/04/02 02:18:31;;;;;;;1999.90;999.90;;;24.00;99.90;;;;;;5025949;28;20037;-70
2023/04/02 02:21:00;;;;;;;1999.90;999.90;;;23.50;99.90;;;;;;5037310;28;20590;-69
2023/04/02 02:23:29;;;;;;;1999.90;999.90;;;23.00;99.90;;;;;;5026202;28;20021;-69
2023/04/02 02:25:57;;;;;;;1999.90;999.90;;;22.50;99.90;;;;;;5029915;28;20470;-70
2023/04/02 02:28:31;;;;;;;1999.90;999.90;;;21.90;99.90;;;;;;5031431;28;20025;-70
2023/04/02 02:31:18;;;;;;;1999.90;999.90;;;21.40;99.90;;;;;;5027897;28;20435;-69
2023/04/02 02:33:57;;;;;;;1999.90;999.90;;;21.10;99.90;;;;;;5031165;28;20388;-70
2023/04/02 02:36:51;;;;;;;1999.90;999.90;;;20.90;99.90;;;;;;5035675;28;20039;-70
2023/04/02 02:39:27;;;;;;;1999.90;999.90;;;20.80;99.90;;;;;;5032646;28;20035;-69
2023/04/02 02:42:34;;;;;;;1999.90;999.90;;;20.80;99.90;;;;;;5031376;28;20387;-70
2023/04/02 02:45:04;;;;;;;1999.90;999.90;;;20.80;99.90;;;;;;5024479;28;20045;-70
2023/04/02 02:47:35;;;;;;;1999.90;999.90;;;20.90;99.90;;;;;;5031887;28;20046;-70
2023/04/02 02:50:17;;;;;;;1999.90;999.90;;;21.20;99.90;;;;;;5032257;28;20160;-71
2023/04/02 02:52:50;;;;;;;1999.90;999.90;;;21.40;99.90;;;;;;5030419;28;21961;-71
2023/04/02 02:55:26;;;;;;;1999.90;999.90;;;21.60;99.90;;;;;;5033958;28;20026;-70
2023/04/02 02:57:58;;;;;;;1999.90;999.90;;;21.80;99.90;;;;;;5023780;28;20049;-70
2023/04/02 03:00:25;;;;;;;1999.90;999.90;;;21.90;99.90;;;;;;5030444;28;20025;-70
2023/04/02 03:02:55;;;;;;;1999.90;999.90;;;22.00;99.90;;;;;;5025669;28;20108;-71
2023/04/02 03:05:26;;;;;;;1999.90;999.90;;;22.10;99.90;;;;;;5034031;28;20052;-70
2023/04/02 03:07:56;;;;;;;1999.90;999.90;;;22.20;99.90;;;;;;5022845;28;20484;-69
2023/04/02 03:10:36;;;;;;;1999.90;999.90;;;22.40;99.90;;;;;;5025271;28;20040;-71
2023/04/02 03:13:34;;;;;;;1999.90;999.90;;;22.40;99.90;;;;;;5021495;28;20057;-72
2023/04/02 03:16:22;;;;;;;1999.90;999.90;;;22.40;99.90;;;;;;5029863;28;20353;-70
2023/04/02 03:19:09;;;;;;;1999.90;999.90;;;22.40;99.90;;;;;;5032032;28;20063;-70
2023/04/02 03:21:54;;;;;;;1999.90;999.90;;;22.40;99.90;;;;;;5026506;28;20040;-70
2023/04/02 03:24:21;;;;;;;1999.90;999.90;;;22.30;99.90;;;;;;5030963;28;20031;-69
2023/04/02 03:27:14;;;;;;;1999.90;999.90;;;22.20;99.90;;;;;;5028340;28;20053;-70
2023/04/02 03:30:02;;;;;;;1999.90;999.90;;;22.10;99.90;;;;;;5023751;28;20053;-68
2023/04/02 03:32:36;;;;;;;1999.90;999.90;;;22.00;99.90;;;;;;5025531;28;20075;-69
2023/04/02 03:35:20;;;;;;;1999.90;999.90;;;21.90;99.90;;;;;;5030455;28;20465;-70
2023/04/02 03:37:55;;;;;;;1999.90;999.90;;;21.90;99.90;;;;;;5028042;28;20549;-70
2023/04/02 03:40:30;;;;;;;1999.90;999.90;;;21.90;99.90;;;;;;5044708;28;20029;-69
2023/04/02 03:43:10;;;;;;;1999.90;999.90;;;21.80;99.90;;;;;;5028497;28;20635;-69
2023/04/02 03:45:45;;;;;;;1999.90;999.90;;;21.60;99.90;;;;;;5029657;28;20045;-70
2023/04/02 03:48:46;;;;;;;1999.90;999.90;;;21.20;99.90;;;;;;5029024;28;20044;-69
2023/04/02 03:51:38;;;;;;;1999.90;999.90;;;20.80;99.90;;;;;;5031077;28;20551;-70
2023/04/02 03:54:10;;;;;;;1999.90;999.90;;;20.30;99.90;;;;;;5029781;28;20037;-69
2023/04/02 03:56:40;;;;;;;1999.90;999.90;;;19.60;99.90;;;;;;5032331;28;20044;-69
2023/04/02 03:59:10;;;;;;;1999.90;999.90;;;19.20;99.90;;;;;;5030751;28;20044;-69
2023/04/02 04:02:03;;;;;;;1999.90;999.90;;;18.80;99.90;;;;;;5031899;28;20041;-69
2023/04/02 04:04:32;;;;;;;1999.90;999.90;;;18.60;99.90;;;;;;5027448;28;21058;-68
2023/04/02 04:07:01;;;;;;;1999.90;999.90;;;18.50;99.90;;;;;;5029886;28;20030;-69
2023/04/02 04:09:40;;;;;;;1999.90;999.90;;;18.50;99.90;;;;;;5031087;28;20036;-69
2023/04/02 04:12:20;;;;;;;1999.90;999.90;;;18.50;99.90;;;;;;5033601;28;20092;-69
2023/04/02 04:15:02;;;;;;;1999.90;999.90;;;18.60;99.90;;;;;;5035333;28;20083;-70
2023/04/02 04:17:37;;;;;;;1999.90;999.90;;;18.70;99.90;;;;;;5032555;28;20123;-69
2023/04/02 04:20:44;;;;;;;1999.90;999.90;;;18.80;99.90;;;;;;5036927;28;20025;-69
2023/04/02 04:23:24;;;;;;;1999.90;999.90;;;18.90;99.90;;;;;;5045772;28;20422;-69
2023/04/02 04:26:18;;;;;;;1999.90;999.90;;;19.00;99.90;;;;;;5039680;28;20041;-68
2023/04/02 04:29:08;;;;;;;1999.90;999.90;;;19.10;99.90;;;;;;5037162;28;20030;-69
2023/04/02 04:31:48;;;;;;;1999.90;999.90;;;19.30;99.90;;;;;;5027245;28;20032;-69
2023/04/02 04:34:28;;;;;;;1999.90;999.90;;;19.40;99.90;;;;;;5034481;28;20368;-69
2023/04/02 04:37:06;;;;;;;1999.90;999.90;;;19.40;99.90;;;;;;5033086;28;20021;-69
2023/04/02 04:39:48;;;;;;;1999.90;999.90;;;19.40;99.90;;;;;;5037719;28;20071;-68
2023/04/02 04:42:28;;;;;;;1999.90;999.90;;;19.40;99.90;;;;;;5033076;28;20029;-70
2023/04/02 04:45:19;;;;;;;1999.90;999.90;;;19.40;99.90;;;;;;5037607;28;20037;-68
2023/04/02 04:48:17;;;;;;;1999.90;999.90;;;19.50;99.90;;;;;;5014161;28;20055;-69
2023/04/02 04:51:11;;;;;;;1999.90;999.90;;;19.60;99.90;;;;;;5020739;28;20506;-69
2023/04/02 04:53:47;;;;;;;1999.90;999.90;;;19.80;99.90;;;;;;5032329;28;20103;-69
2023/04/02 04:56:16;;;;;;;;;;;19.80;99.90;;;;;;5036245;28;20021;-69
2023/04/02 04:58:53;;;;;;;1999.90;999.90;;;19.90;99.90;;;;;;5030286;28;20184;-70
2023/04/02 05:01:32;;;;;;;1999.90;999.90;;;20.00;99.90;;;;;;5043898;28;20072;-69
2023/04/02 05:04:06;;;;;;;1999.90;999.90;;;20.20;99.90;;;;;;5032537;28;20029;-69
2023/04/02 05:06:54;;;;;;;1999.90;999.90;;;20.40;99.90;;;;;;5038496;28;20088;-70
2023/04/02 05:09:31;;;;;;;1999.90;999.90;;;20.50;99.90;;;;;;5031439;28;20029;-69
2023/04/02 05:12:21;;;;;;;1999.90;999.90;;;20.50;99.90;;;;;;5029691;28;20134;-69
2023/04/02 05:15:00;;;;;;;1999.90;999.90;;;20.50;99.90;;;;;;5043989;28;20034;-69
2023/04/02 05:17:39;;;;;;;1999.90;999.90;;;20.50;99.90;;;;;;5023906;28;20087;-70
2023/04/02 05:20:15;;;;;;;1999.90;999.90;;;20.70;99.90;;;;;;5028402;28;20726;-70
2023/04/02 05:23:04;;;;;;;1999.90;999.90;;;20.90;99.90;;;;;;5028526;28;20028;-69
2023/04/02 05:25:32;;;;;;;1999.90;999.90;;;21.40;99.90;;;;;;5024995;28;20689;-70
2023/04/02 05:28:25;;;;;;;1999.90;999.90;;;21.60;99.90;;;;;;5028646;28;20052;-70
2023/04/02 05:31:00;;;;;;;1999.90;999.90;;;21.70;99.90;;;;;;5030717;28;20029;-70
2023/04/02 05:33:28;;;;;;;1999.90;999.90;;;21.70;99.90;;;;;;5040541;28;20107;-68
2023/04/02 05:36:01;;;;;;;1999.90;999.90;;;21.70;99.90;;;;;;5027836;28;20445;-70
2023/04/02 05:38:32;;;;;;;1999.90;999.90;;;21.50;99.90;;;;;;5026285;28;20060;-68
2023/04/02 05:41:35;;;;;;;1999.90;999.90;;;21.40;99.90;;;;;;5043560;28;20029;-69
2023/04/02 05:44:08;;;;;;;1999.90;999.90;;;21.40;99.90;;;;;;5029978;28;20033;-70
2023/04/02 05:46:52;;;;;;;1999.90;999.90;;;21.40;99.90;;;;;;5037992;28;20037;-69
2023/04/02 05:50:00;;;;;;;1999.90;999.90;;;21.20;99.90;;;;;;5027009;28;20380;-70
2023/04/02 05:52:32;;;;;;;1999.90;999.90;;;21.00;99.90;;;;;;5031321;28;20091;-70
2023/04/02 05:55:26;;;;;;;1999.90;999.90;;;20.90;99.90;;;;;;5038306;28;20090;-70
2023/04/02 05:58:06;;;;;;;1999.90;999.90;;;20.80;99.90;;;;;;5031586;28;20072;-70
2023/04/02 06:01:00;;;;;;;1999.90;999.90;;;20.70;99.90;;;;;;5037889;28;20041;-70
2023/04/02 06:03:55;;;;;;;1999.90;999.90;;;20.40;99.90;;;;;;5035605;28;20113;-70
2023/04/02 06:06:41;;;;;;;1999.90;999.90;;;20.30;99.90;;;;;;5031611;28;20025;-70
2023/04/02 06:09:27;;;;;;;1999.90;999.90;;;20.20;99.90;;;;;;5034808;28;20040;-70
2023/04/02 06:12:04;;;;;;;1999.90;999.90;;;20.30;99.90;;;;;;5039408;28;20029;-70
2023/04/02 06:14:31;;;;;;;1999.90;999.90;;;20.40;99.90;;;;;;5036550;28;20390;-70
2023/04/02 06:16:59;;;;;;;1999.90;999.90;;;20.40;99.90;;;;;;5034036;28;20030;-70
2023/04/02 06:19:37;;;;;;;1999.90;999.90;;;20.30;99.90;;;;;;5035976;28;20080;-70
2023/04/02 06:22:38;;;;;;;1999.90;999.90;;;20.30;99.90;;;;;;5035547;28;20033;-70
2023/04/02 06:25:30;;;;;;;1999.90;999.90;;;20.20;99.90;;;;;;5034360;28;20116;-69
2023/04/02 06:28:00;;;;;;;1999.90;999.90;;;20.10;99.90;;;;;;5031409;28;20044;-70
2023/04/02 06:30:38;;;;;;;1999.90;999.90;;;20.00;99.90;;;;;;5034351;28;20100;-69
2023/04/02 06:33:06;;;;;;;1999.90;999.90;;;19.80;99.90;;;;;;5029951;28;20025;-70
2023/04/02 06:35:35;;;;;;;1999.90;999.90;;;19.80;99.90;;;;;;5037660;28;20428;-70
2023/04/02 06:38:06;;;;;;;1999.90;999.90;;;19.70;99.90;;;;;;5030853;28;20150;-70
2023/04/02 06:40:54;;;;;;;1999.90;999.90;;;19.70;99.90;;;;;;5037401;28;20496;-70
2023/04/02 06:43:25;;;;;;;1999.90;999.90;;;19.70;99.90;;;;;;5036036;28;20080;-70
2023/04/02 06:45:55;;;;;;;1999.90;999.90;;;19.70;99.90;;;;;;5033279;28;20436;-70
2023/04/02 06:48:24;;;;;;;1999.90;999.90;;;19.60;99.90;;;;;;5037811;28;20028;-72
2023/04/02 06:51:05;;;;;;;1999.90;999.90;;;19.50;99.90;;;;;;5033693;28;20113;-70
2023/04/02 06:53:43;;;;;;;1999.90;999.90;;;19.50;99.90;;;;;;5030285;28;20424;-70
2023/04/02 06:56:42;;;;;;;1999.90;999.90;;;19.30;99.90;;;;;;5034751;28;20472;-70
2023/04/02 06:59:11;;;;;;;1999.90;999.90;;;19.20;99.90;;;;;;5028219;28;20511;-73
2023/04/02 07:02:05;;;;;;;1999.90;999.90;;;19.20;99.90;;;;;;5029256;28;20182;-69
2023/04/02 07:04:33;;;;;;;1999.90;999.90;;;19.10;99.90;;;;;;5028558;28;20026;-69
2023/04/02 07:07:01;;;;;;;1999.90;999.90;;;19.10;99.90;;;;;;5030998;28;20037;-73
2023/04/02 07:09:28;;;;;;;1999.90;999.90;;;19.10;99.90;;;;;;5032392;28;20037;-70
2023/04/02 07:11:56;;;;;;;1999.90;999.90;;;19.10;99.90;;;;;;5031707;28;20075;-70
2023/04/02 07:14:23;;;;;;;1999.90;999.90;;;19.10;99.90;;;;;;5034938;28;20029;-70
2023/04/02 07:16:51;;;;;;;1999.90;999.90;;;19.10;99.90;;;;;;5030561;28;20046;-69
2023/04/02 07:19:21;;;;;;;1999.90;999.90;;;19.10;99.90;;;;;;5027434;28;20025;-71
2023/04/02 07:21:49;;;;;;;1999.90;999.90;;;19.00;99.90;;;;;;5026918;28;20099;-70
2023/04/02 07:24:16;;;;;;;1999.90;999.90;;;18.80;99.90;;;;;;5029118;28;20558;-70
2023/04/02 07:26:44;;;;;;;1999.90;999.90;;;18.80;99.90;;;;;;5028935;28;20128;-69
2023/04/02 07:29:16;;;;;;;1999.90;999.90;;;18.70;99.90;;;;;;5038171;28;20025;-69
2023/04/02 07:31:44;;;;;;;1999.90;999.90;;;18.60;99.90;;;;;;5045723;28;21156;-69
2023/04/02 07:34:13;;;;;;;1999.90;999.90;;;18.50;99.90;;;;;;5035395;28;20116;-69
2023/04/02 07:36:41;;;;;;;1999.90;999.90;;;18.50;99.90;;;;;;5031109;28;20069;-69
2023/04/02 07:39:08;;;;;;;1999.90;999.90;;;18.40;99.90;;;;;;5030824;28;20024;-69
2023/04/02 07:41:54;;;;;;;1999.90;999.90;;;18.30;99.90;;;;;;5034914;28;20029;-70
2023/04/02 07:44:23;;;;;;;1999.90;999.90;;;18.30;99.90;;;;;;5027199;28;20107;-70
2023/04/02 07:46:51;;;;;;;1999.90;999.90;;;18.20;99.90;;;;;;5028740;28;20053;-70
2023/04/02 07:49:18;;;;;;;1999.90;999.90;;;18.10;99.90;;;;;;5028236;28;20523;-71
2023/04/02 07:51:46;;;;;;;1999.90;999.90;;;18.00;99.90;;;;;;5031721;28;20040;-69
2023/04/02 07:54:13;;;;;;;1999.90;999.90;;;18.00;99.90;;;;;;5030538;28;20020;-70
2023/04/02 07:56:41;;;;;;;1999.90;999.90;;;17.90;99.90;;;;;;5029708;28;20033;-69
2023/04/02 07:59:08;;;;;;;1999.90;999.90;;;17.90;99.90;;;;;;5029838;28;20076;-70
2023/04/02 08:01:36;;;;;;;1999.90;999.90;;;17.80;99.90;;;;;;5035700;28;20053;-69
2023/04/02 08:04:06;;;;;;;1999.90;999.90;;;17.80;99.90;;;;;;5035411;28;20029;-69
2023/04/02 08:06:34;;;;;;;1999.90;999.90;;;17.70;99.90;;;;;;5038923;28;20539;-69
2023/04/02 08:09:04;;;;;;;1999.90;999.90;;;17.70;99.90;;;;;;5031342;28;20119;-71
2023/04/02 08:11:31;;;;;;;1999.90;999.90;;;17.70;99.90;;;;;;5032314;28;20476;-70
2023/04/02 08:13:59;;;;;;;1999.90;999.90;;;17.70;99.90;;;;;;5033028;28;20464;-69
2023/04/02 08:16:26;;;;;;;1999.90;999.90;;;17.70;99.90;;;;;;5035721;28;20043;-69
2023/04/02 08:18:54;;;;;;;1999.90;999.90;;;17.70;99.90;;;;;;5033915;28;20057;-70
2023/04/02 08:21:21;;;;;;;1999.90;999.90;;;17.70;99.90;;;;;;5034863;28;20051;-70
2023/04/02 08:23:49;;;;;;;1999.90;999.90;;;17.70;99.90;;;;;;5037208;28;20029;-69
2023/04/02 08:26:19;;;;;;;1999.90;999.90;;;17.70;99.90;;;;;;5039927;28;20123;-70
2023/04/02 08:28:47;;;;;;;1999.90;999.90;;;17.70;99.90;;;;;;5028368;28;20707;-70
2023/04/02 08:31:14;;;;;;;1999.90;999.90;;;17.70;99.90;;;;;;5036224;28;20037;-69
2023/04/02 08:33:41;;;;;;;1999.90;999.90;;;17.70;99.90;;;;;;5033176;28;20037;-69
2023/04/02 08:36:17;;;;;;;1999.90;999.90;;;17.80;99.90;;;;;;5033858;28;20380;-69
2023/04/02 08:38:45;;;;;;;1999.90;999.90;;;17.80;99.90;;;;;;5018151;28;20507;-70
2023/04/02 08:41:26;;;;;;;1999.90;999.90;;;17.90;99.90;;;;;;5018858;28;20037;-71
2023/04/02 08:44:07;;;;;;;1999.90;999.90;;;17.90;99.90;;;;;;5015646;28;20036;-69
2023/04/02 08:46:47;;;;;;;1999.90;999.90;;;17.90;99.90;;;;;;5020837;28;20048;-69
2023/04/02 08:49:28;;;;;;;1999.90;999.90;;;17.90;99.90;;;;;;5018680;28;20472;-70
2023/04/02 08:51:55;;;;;;;1999.90;999.90;;;17.90;99.90;;;;;;5019441;28;20084;-70
2023/04/02 08:54:30;;;;;;;1999.90;999.90;;;17.90;99.90;;;;;;5030340;28;20031;-70
2023/04/02 08:57:02;;;;;;;1999.90;999.90;;;17.90;99.90;;;;;;5035030;28;20041;-71
2023/04/02 08:59:40;;;;;;;1999.90;999.90;;;17.90;99.90;;;;;;5037173;28;20025;-70
2023/04/02 09:02:22;;;;;;;1999.90;999.90;;;17.90;99.90;;;;;;5028553;28;20029;-70
2023/04/02 09:04:50;;;;;;;1999.90;999.90;;;17.90;99.90;;;;;;5034590;28;20495;-70
2023/04/02 09:07:18;;;;;;;1999.90;999.90;;;17.90;99.90;;;;;;5027406;28;20163;-70
2023/04/02 09:09:48;;;;;;;1999.90;999.90;;;17.80;99.90;;;;;;5030751;28;20104;-70
2023/04/02 09:12:23;;;;;;;1999.90;999.90;;;17.80;99.90;;;;;;5034910;28;20024;-71
2023/04/02 09:14:59;;;;;;;1999.90;999.90;;;17.80;99.90;;;;;;5038913;28;20029;-70
2023/04/02 09:17:27;;;;;;;1999.90;999.90;;;17.80;99.90;;;;;;5026634;28;20188;-71
2023/04/02 09:20:15;;;;;;;1999.90;999.90;;;17.70;99.90;;;;;;5027598;28;20025;-70
2023/04/02 09:22:47;;;;;;;1999.90;999.90;;;17.70;99.90;;;;;;5031996;28;20033;-71
2023/04/02 09:25:22;;;;;;;1999.90;999.90;;;17.70;99.90;;;;;;5038325;28;20067;-70
2023/04/02 09:27:52;;;;;;;1999.90;999.90;;;17.70;99.90;;;;;;5034379;28;20021;-71
2023/04/02 09:30:32;;;;;;;1999.90;999.90;;;17.70;99.90;;;;;;5039463;28;20117;-71
2023/04/02 09:33:06;;;;;;;1999.90;999.90;;;17.70;99.90;;;;;;5026725;28;20033;-70
2023/04/02 09:35:57;;;;;;;1999.90;999.90;;;17.70;99.90;;;;;;5024776;28;20029;-71
2023/04/02 09:38:32;;;;;;;1999.90;999.90;;;17.70;99.90;;;;;;5019562;28;20106;-68
2023/04/02 09:41:04;;;;;;;1999.90;999.90;;;17.70;99.90;;;;;;5023229;28;20029;-70
2023/04/02 09:43:37;;;;;;;1999.90;999.90;;;17.60;99.90;;;;;;5032227;28;20084;-71
2023/04/02 09:46:17;;;;;;;1999.90;999.90;;;17.70;99.90;;;;;;5035771;28;20033;-70
2023/04/02 09:48:56;;;;;;;1999.90;999.90;;;17.60;99.90;;;;;;5035438;28;20045;-71
2023/04/02 09:51:38;;;;;;;1999.90;999.90;;;17.60;99.90;;;;;;5038399;28;20033;-71
2023/04/02 09:54:16;;;;;;;1999.90;999.90;;;17.70;99.90;;;;;;5033241;28;20050;-71
2023/04/02 09:57:26;;;;;;;1999.90;999.90;;;17.70;99.90;;;;;;5038689;28;20037;-71
2023/04/02 10:00:20;;;;;;;1999.90;999.90;;;17.60;99.90;;;;;;5038266;28;20401;-70
2023/04/02 10:03:01;;;;;;;1999.90;999.90;;;17.60;99.90;;;;;;5030016;28;20021;-70
2023/04/02 10:05:29;;;;;;;1999.90;999.90;;;17.70;99.90;;;;;;5035866;28;20644;-69
2023/04/02 10:08:16;;;;;;;1999.90;999.90;;;17.70;99.90;;;;;;5028762;28;20472;-70
2023/04/02 10:10:48;;;;;;;1999.90;999.90;;;17.70;99.90;;;;;;5026850;28;20058;-71
2023/04/02 10:13:27;;;;;;;1999.90;999.90;;;17.70;99.90;;;;;;5030205;28;20511;-72
2023/04/02 10:15:57;;;;;;;1999.90;999.90;;;17.70;99.90;;;;;;5031578;28;20066;-72
2023/04/02 10:18:42;;;;;;;1999.90;999.90;;;17.70;99.90;;;;;;5025230;28;20130;-70
2023/04/02 10:21:17;;;;;;;1999.90;999.90;;;17.60;99.90;;;;;;5028843;28;20040;-70
2023/04/02 10:23:44;;;;;;;1999.90;999.90;;;17.60;99.90;;;;;;5029633;28;20045;-70
2023/04/02 10:26:21;;;;;;;1999.90;999.90;;;17.50;99.90;;;;;;5028149;28;20029;-70
2023/04/02 10:28:51;;;;;;;1999.90;999.90;;;17.50;99.90;;;;;;5023829;28;20082;-69
2023/04/02 10:31:42;;;;;;;1999.90;999.90;;;17.50;99.90;;;;;;5027411;28;20025;-69
2023/04/02 10:34:22;;;;;;;1999.90;999.90;;;17.60;99.90;;;;;;5025480;28;20508;-70
2023/04/02 10:37:04;;;;;;;1999.90;999.90;;;17.50;99.90;;;;;;5032290;28;20123;-71
2023/04/02 10:39:45;;;;;;;1999.90;999.90;;;17.50;99.90;;;;;;5027110;28;20033;-71
2023/04/02 10:42:26;;;;;;;1999.90;999.90;;;17.50;99.90;;;;;;5028689;28;20472;-70
2023/04/02 10:45:18;;;;;;;1999.90;999.90;;;17.50;99.90;;;;;;5039396;28;20483;-70
2023/04/02 10:48:00;;;;;;;1999.90;999.90;;;17.50;99.90;;;;;;5026943;28;20068;-70
2023/04/02 10:50:48;;;;;;;1999.90;999.90;;;17.50;99.90;;;;;;5027394;28;20028;-70
2023/04/02 10:53:20;;;;;;;1999.90;999.90;;;17.50;99.90;;;;;;5024624;28;20396;-70
2023/04/02 10:56:02;;;;;;;1999.90;999.90;;;17.40;99.90;;;;;;5027736;28;20096;-70
2023/04/02 10:58:34;;;;;;;1999.90;999.90;;;17.40;99.90;;;;;;5029077;28;20426;-69
2023/04/02 11:01:12;;;;;;;1999.90;999.90;;;17.40;99.90;;;;;;5025785;28;20483;-69
2023/04/02 11:03:47;;;;;;;1999.90;999.90;;;17.40;99.90;;;;;;5032559;28;20387;-70
2023/04/02 11:06:19;;;;;;;1999.90;999.90;;;17.40;99.90;;;;;;5030839;28;20036;-70
2023/04/02 11:08:50;;;;;;;1999.90;999.90;;;17.50;99.90;;;;;;5028033;28;20048;-70
2023/04/02 11:11:30;;;;;;;1999.90;999.90;;;17.50;99.90;;;;;;5036002;28;20035;-70
2023/04/02 11:14:00;;;;;;;1999.90;999.90;;;17.50;99.90;;;;;;5032675;28;20025;-70
2023/04/02 11:16:28;;;;;;;1999.90;999.90;;;17.40;99.90;;;;;;5033805;28;20021;-70
2023/04/02 11:19:16;;;;;;;1999.90;999.90;;;17.40;99.90;;;;;;5025025;28;20068;-70
2023/04/02 11:21:51;;;;;;;1999.90;999.90;;;17.40;99.90;;;;;;5028511;28;20032;-70
2023/04/02 11:24:35;;;;;;;1999.90;999.90;;;17.40;99.90;;;;;;5033698;28;20472;-70
2023/04/02 11:27:13;;;;;;;1999.90;999.90;;;17.40;99.90;;;;;;5028959;28;20290;-70
2023/04/02 11:30:06;;;;;;;1999.90;999.90;;;17.40;99.90;;;;;;5032326;28;20053;-72
2023/04/02 11:33:19;;;;;;;1999.90;999.90;;;17.30;99.90;;;;;;5032472;28;20021;-71
2023/04/02 11:35:46;;;;;;;1999.90;999.90;;;17.30;99.90;;;;;;5032769;28;20072;-69
2023/04/02 11:38:23;;;;;;;1999.90;999.90;;;17.30;99.90;;;;;;5027829;28;20040;-71
2023/04/02 11:40:57;;;;;;;1999.90;999.90;;;17.30;99.90;;;;;;5034049;28;20017;-71
2023/04/02 11:43:36;;;;;;;1999.90;999.90;;;17.20;99.90;;;;;;5033582;28;20029;-70
2023/04/02 11:46:18;;;;;;;1999.90;999.90;;;17.20;99.90;;;;;;5033641;28;20803;-71
2023/04/02 11:48:45;;;;;;;1999.90;999.90;;;17.20;99.90;;;;;;5027862;28;20030;-71
2023/04/02 11:51:32;;;;;;;1999.90;999.90;;;17.20;99.90;;;;;;5027543;28;20037;-69
2023/04/02 11:54:00;;;;;;;1999.90;999.90;;;17.20;99.90;;;;;;5033067;28;20025;-69
2023/04/02 11:56:57;;;;;;;1999.90;999.90;;;17.10;99.90;;;;;;5037366;28;20511;-70
2023/04/02 12:00:10;;;;;;;1999.90;999.90;;;17.10;99.90;;;;;;5031248;28;20040;-70
2023/04/02 12:03:02;;;;;;;1999.90;999.90;;;17.00;99.90;;;;;;5037103;28;20037;-70
2023/04/02 12:05:41;;;;;;;1999.90;999.90;;;17.10;99.90;;;;;;5034910;28;20497;-68
2023/04/02 12:08:26;;;;;;;1999.90;999.90;;;17.10;99.90;;;;;;5031670;28;20117;-68
2023/04/02 12:11:01;;;;;;;1999.90;999.90;;;17.10;99.90;;;;;;5034016;28;20025;-69
2023/04/02 12:13:40;;;;;;;1999.90;999.90;;;17.10;99.90;;;;;;5030862;28;20041;-70
2023/04/02 12:16:09;;;;;;;1999.90;999.90;;;17.10;99.90;;;;;;5028101;28;20025;-69
2023/04/02 12:18:55;;;;;;;1999.90;999.90;;;17.10;99.90;;;;;;5025153;28;20042;-69
2023/04/02 12:21:26;;;;;;;1999.90;999.90;;;17.00;99.90;;;;;;5035777;28;20025;-69
2023/04/02 12:23:58;;;;;;;1999.90;999.90;;;17.00;99.90;;;;;;5030922;28;20383;-70
2023/04/02 12:26:37;;;;;;;1999.90;999.90;;;17.00;99.90;;;;;;5032982;28;20376;-69
2023/04/02 12:29:26;;;;;;;1999.90;999.90;;;17.00;99.90;;;;;;5036875;28;20034;-70
2023/04/02 12:31:56;;;;;;;1999.90;999.90;;;16.90;99.90;;;;;;5033502;28;20034;-69
2023/04/02 12:34:26;;;;;;;1999.90;999.90;;;16.80;99.90;;;;;;5038037;28;20310;-69
2023/04/02 12:37:04;;;;;;;1999.90;999.90;;;16.80;99.90;;;;;;5036955;28;20045;-70
2023/04/02 12:39:35;;;;;;;1999.90;999.90;;;16.70;99.90;;;;;;5026244;28;20722;-69
2023/04/02 12:42:02;;;;;;;1999.90;999.90;;;16.70;99.90;;;;;;5039922;28;20055;-69
2023/04/02 12:44:31;;;;;;;1999.90;999.90;;;16.70;99.90;;;;;;5037904;28;20029;-70
2023/04/02 12:46:59;;;;;;;1999.90;999.90;;;16.70;99.90;;;;;;5033870;28;20041;-71
2023/04/02 12:49:39;;;;;;;1999.90;999.90;;;16.80;99.90;;;;;;5033356;28;20053;-70